Time;durP1;ratioP1;P1;durP2;ratioP2;P2;SDS_P1;SDS_P2;PMS_P1;PMS_P2;Temp;Humidity;BMP_temperature;BMP_pressure;BME280_temperature;BME280_humidity;BME280_pressure;Samples;Min_cycle;Max_cycle;Signal;HPM_P1;HPM_P2
2023/08/07 00:01:08;;;;;;;12.40;4.45;;;;;;;;;;6247198;22;20027;-65
2023/08/07 00:03:35;;;;;;;11.98;4.88;;;;;;;;;;6246830;22;20016;-65
2023/08/07 00:06:01;;;;;;;12.48;4.78;;;;;;;;;;6247697;22;20027;-65
2023/08/07 00:08:27;;;;;;;15.85;5.28;;;;;;;;;;6246531;22;20070;-64
2023/08/07 00:10:53;;;;;;;18.40;5.82;;;;;;;;;;6274347;22;20086;-65
2023/08/07 00:13:19;;;;;;;11.88;5.10;;;;;;;;;;6221804;22;20023;-65
2023/08/07 00:15:45;;;;;;;12.77;4.70;;;;;;;;;;6246634;22;20391;-65
2023/08/07 00:18:11;;;;;;;16.70;5.50;;;;;;;;;;6274578;22;20020;-65
2023/08/07 00:20:37;;;;;;;13.95;5.30;;;;;;;;;;6274230;22;20065;-65
2023/08/07 00:23:03;;;;;;;16.30;4.25;;;;;;;;;;6273531;22;20028;-64
2023/08/07 00:25:29;;;;;;;17.25;5.72;;;;;;;;;;6273667;22;20429;-65
2023/08/07 00:27:55;;;;;;;16.02;5.22;;;;;;;;;;6274580;22;20016;-65
2023/08/07 00:30:22;;;;;;;8.57;4.05;;;;;;;;;;6247032;22;20070;-65
2023/08/07 00:32:48;;;;;;;13.18;4.22;;;;;;;;;;6247539;22;20029;-65
2023/08/07 00:35:14;;;;;;;8.38;3.33;;;;;;;;;;6246257;22;20019;-65
2023/08/07 00:37:40;;;;;;;8.07;3.47;;;;;;;;;;6273687;22;20019;-65
2023/08/07 00:40:07;;;;;;;6.68;3.20;;;;;;;;;;6247058;22;20022;-65
2023/08/07 00:42:33;;;;;;;8.80;3.75;;;;;;;;;;6222096;22;20020;-66
2023/08/07 00:45:00;;;;;;;6.13;2.88;;;;;;;;;;6221756;22;20019;-65
2023/08/07 00:47:26;;;;;;;10.80;3.15;;;;;;;;;;6246750;22;20129;-65
2023/08/07 00:49:52;;;;;;;9.38;2.88;;;;;;;;;;6248546;22;20051;-65
2023/08/07 00:52:19;;;;;;;10.43;2.55;;;;;;;;;;6275758;22;20020;-66
2023/08/07 00:54:46;;;;;;;9.32;2.72;;;;;;;;;;6247654;22;20020;-65
2023/08/07 00:57:14;;;;;;;11.45;3.47;;;;;;;;;;6249141;22;20022;-65
2023/08/07 00:59:41;;;;;;;6.88;2.78;;;;;;;;;;6276693;22;20051;-65
2023/08/07 01:02:07;;;;;;;9.15;2.50;;;;;;;;;;6275707;22;20073;-65
2023/08/07 01:04:36;;;;;;;12.13;2.65;;;;;;;;;;6276277;22;20349;-65
2023/08/07 01:07:02;;;;;;;13.82;2.22;;;;;;;;;;6223853;22;20015;-64
2023/08/07 01:09:28;;;;;;;15.18;2.50;;;;;;;;;;6276299;22;20027;-65
2023/08/07 01:11:57;;;;;;;12.93;3.17;;;;;;;;;;6248492;22;20103;-65
2023/08/07 01:14:33;;;;;;;12.98;3.47;;;;;;;;;;6276129;22;20043;-65
2023/08/07 01:16:59;;;;;;;21.10;2.97;;;;;;;;;;6249352;22;20359;-65
2023/08/07 01:19:27;;;;;;;13.20;3.85;;;;;;;;;;6248447;22;20027;-65
2023/08/07 01:22:09;;;;;;;20.02;3.50;;;;;;;;;;6276175;22;20051;-65
2023/08/07 01:24:35;;;;;;;15.75;3.53;;;;;;;;;;6248722;22;20015;-65
2023/08/07 01:27:08;;;;;;;22.17;4.13;;;;;;;;;;6249321;22;20019;-65
2023/08/07 01:29:42;;;;;;;11.80;2.95;;;;;;;;;;6248788;22;20425;-65
2023/08/07 01:32:09;;;;;;;11.63;3.13;;;;;;;;;;6222525;22;20016;-65
2023/08/07 01:34:36;;;;;;;16.85;3.00;;;;;;;;;;6247860;22;20756;-65
2023/08/07 01:37:03;;;;;;;16.05;3.10;;;;;;;;;;6248745;22;20098;-63
2023/08/07 01:39:29;;;;;;;14.77;2.55;;;;;;;;;;6248398;22;20015;-65
2023/08/07 01:41:56;;;;;;;17.40;3.25;;;;;;;;;;6248358;22;20432;-65
2023/08/07 01:44:22;;;;;;;18.30;3.47;;;;;;;;;;6275836;22;20120;-65
2023/08/07 01:46:48;;;;;;;12.02;2.88;;;;;;;;;;6249216;22;20066;-65
2023/08/07 01:49:14;;;;;;;11.75;2.60;;;;;;;;;;6274718;22;20027;-65
2023/08/07 01:51:40;;;;;;;12.30;2.15;;;;;;;;;;6275634;22;20012;-65
2023/08/07 01:54:06;;;;;;;7.72;1.67;;;;;;;;;;6223513;22;20104;-65
2023/08/07 01:56:32;;;;;;;11.18;1.80;;;;;;;;;;6275803;22;20047;-65
2023/08/07 01:58:58;;;;;;;9.10;2.53;;;;;;;;;;6223212;22;20471;-64
2023/08/07 02:01:24;;;;;;;12.18;2.53;;;;;;;;;;6247929;22;20027;-65
2023/08/07 02:03:50;;;;;;;11.00;2.58;;;;;;;;;;6248508;22;20441;-65
2023/08/07 02:06:16;;;;;;;10.35;2.47;;;;;;;;;;6275718;22;20095;-66
2023/08/07 02:08:42;;;;;;;14.40;2.42;;;;;;;;;;6276118;22;20058;-66
2023/08/07 02:11:08;;;;;;;8.88;2.55;;;;;;;;;;6248590;22;20042;-65
2023/08/07 02:13:34;;;;;;;10.93;2.42;;;;;;;;;;6248934;22;20341;-65
2023/08/07 02:16:00;;;;;;;11.73;2.88;;;;;;;;;;6248637;22;20485;-65
2023/08/07 02:18:26;;;;;;;15.55;2.38;;;;;;;;;;6247574;22;20039;-65
2023/08/07 02:20:52;;;;;;;15.60;2.72;;;;;;;;;;6248504;22;20345;-65
2023/08/07 02:23:18;;;;;;;17.58;2.45;;;;;;;;;;6274987;22;20029;-65
2023/08/07 02:25:45;;;;;;;17.35;2.83;;;;;;;;;;6248270;22;20059;-65
2023/08/07 02:28:11;;;;;;;11.82;2.58;;;;;;;;;;6275329;22;20020;-65
2023/08/07 02:30:37;;;;;;;16.70;2.72;;;;;;;;;;6248445;22;20011;-66
2023/08/07 02:33:03;;;;;;;11.35;2.90;;;;;;;;;;6274279;22;20024;-65
2023/08/07 02:35:29;;;;;;;13.93;3.58;;;;;;;;;;6275498;22;20414;-66
2023/08/07 02:37:55;;;;;;;19.13;3.78;;;;;;;;;;6275365;22;20020;-65
2023/08/07 02:40:21;;;;;;;19.92;5.28;;;;;;;;;;6275005;22;20054;-65
2023/08/07 02:42:48;;;;;;;11.45;3.17;;;;;;;;;;6275619;22;20453;-65
2023/08/07 02:45:14;;;;;;;21.38;3.70;;;;;;;;;;6247787;22;20023;-65
2023/08/07 02:47:40;;;;;;;14.25;3.28;;;;;;;;;;6222466;22;20341;-66
2023/08/07 02:50:06;;;;;;;11.18;2.40;;;;;;;;;;6247636;22;20058;-65
2023/08/07 02:52:32;;;;;;;16.40;3.10;;;;;;;;;;6222218;22;20060;-66
2023/08/07 02:54:58;;;;;;;19.77;3.72;;;;;;;;;;6273867;22;20027;-65
2023/08/07 02:57:25;;;;;;;22.15;3.85;;;;;;;;;;6274800;22;20103;-65
2023/08/07 02:59:51;;;;;;;19.85;4.13;;;;;;;;;;6274804;22;20019;-65
2023/08/07 03:02:17;;;;;;;14.68;4.13;;;;;;;;;;6273791;22;20016;-65
2023/08/07 03:04:43;;;;;;;21.27;4.63;;;;;;;;;;6274930;22;20020;-65
2023/08/07 03:07:09;;;;;;;18.35;3.60;;;;;;;;;;6274478;22;20016;-65
2023/08/07 03:09:35;;;;;;;13.25;2.78;;;;;;;;;;6248337;22;20094;-65
2023/08/07 03:12:03;;;;;;;21.13;2.97;;;;;;;;;;6274105;22;20471;-65
2023/08/07 03:14:29;;;;;;;12.75;2.90;;;;;;;;;;6222780;22;20499;-65
2023/08/07 03:16:56;;;;;;;13.77;3.05;;;;;;;;;;6247378;22;20503;-65
2023/08/07 03:19:22;;;;;;;14.10;3.88;;;;;;;;;;6247857;22;20015;-66
2023/08/07 03:21:48;;;;;;;10.13;2.42;;;;;;;;;;6274598;22;20028;-66
2023/08/07 03:24:14;;;;;;;10.55;3.25;;;;;;;;;;6274326;22;20467;-65
2023/08/07 03:26:40;;;;;;;9.23;2.10;;;;;;;;;;6274454;22;20023;-65
2023/08/07 03:29:06;;;;;;;19.25;3.17;;;;;;;;;;6273986;22;20128;-66
2023/08/07 03:31:33;;;;;;;10.50;2.92;;;;;;;;;;6221882;22;20401;-66
2023/08/07 03:33:59;;;;;;;11.13;2.72;;;;;;;;;;6222928;22;20028;-67
2023/08/07 03:36:25;;;;;;;9.32;2.72;;;;;;;;;;6272812;22;20437;-67
2023/08/07 03:38:51;;;;;;;8.68;2.85;;;;;;;;;;6247594;22;20408;-66
2023/08/07 03:41:17;;;;;;;11.25;2.88;;;;;;;;;;6274501;22;20019;-67
2023/08/07 03:43:43;;;;;;;10.43;3.85;;;;;;;;;;6274721;22;20062;-66
2023/08/07 03:46:09;;;;;;;13.70;3.75;;;;;;;;;;6272490;22;20024;-66
2023/08/07 03:48:35;;;;;;;12.00;3.65;;;;;;;;;;6274923;22;20019;-66
2023/08/07 03:51:08;;;;;;;18.33;3.25;;;;;;;;;;6247654;22;20023;-66
2023/08/07 03:53:34;;;;;;;18.13;4.00;;;;;;;;;;6275049;22;20333;-67
2023/08/07 03:56:00;;;;;;;11.10;3.70;;;;;;;;;;6274586;22;20023;-66
2023/08/07 03:58:26;;;;;;;14.00;3.38;;;;;;;;;;6246890;22;20026;-66
2023/08/07 04:00:52;;;;;;;10.85;3.90;;;;;;;;;;6247822;22;20507;-66
2023/08/07 04:03:21;;;;;;;19.42;4.30;;;;;;;;;;6274536;22;20062;-66
2023/08/07 04:05:48;;;;;;;20.90;4.13;;;;;;;;;;6247469;22;20065;-66
2023/08/07 04:08:14;;;;;;;10.23;3.25;;;;;;;;;;6246814;22;20024;-66
2023/08/07 04:10:40;;;;;;;14.55;3.90;;;;;;;;;;6274890;22;20450;-66
2023/08/07 04:13:06;;;;;;;15.77;3.80;;;;;;;;;;6221277;22;20029;-65
2023/08/07 04:15:32;;;;;;;19.80;4.18;;;;;;;;;;6247234;22;20337;-65
2023/08/07 04:17:58;;;;;;;12.88;3.70;;;;;;;;;;6247620;22;20034;-66
2023/08/07 04:20:24;;;;;;;17.45;4.28;;;;;;;;;;6221381;22;20107;-65
2023/08/07 04:22:50;;;;;;;19.30;4.10;;;;;;;;;;6248266;22;20066;-66
2023/08/07 04:25:16;;;;;;;15.40;3.72;;;;;;;;;;6277630;22;20016;-65
2023/08/07 04:27:42;;;;;;;14.88;3.67;;;;;;;;;;6277293;22;20057;-66
2023/08/07 04:30:08;;;;;;;15.75;2.95;;;;;;;;;;6277316;22;20023;-62
2023/08/07 04:32:35;;;;;;;19.27;4.32;;;;;;;;;;6277881;22;20147;-66
2023/08/07 04:35:01;;;;;;;21.33;4.15;;;;;;;;;;6250218;22;20487;-66
2023/08/07 04:37:27;;;;;;;11.20;3.72;;;;;;;;;;6277729;22;20074;-66
2023/08/07 04:39:54;;;;;;;11.00;3.38;;;;;;;;;;6250942;22;20471;-66
2023/08/07 04:42:20;;;;;;;13.25;2.65;;;;;;;;;;6249545;22;20046;-66
2023/08/07 04:44:46;;;;;;;15.90;3.22;;;;;;;;;;6225465;22;20444;-65
2023/08/07 04:47:12;;;;;;;14.27;3.60;;;;;;;;;;6225022;22;20016;-66
2023/08/07 04:49:38;;;;;;;13.68;3.10;;;;;;;;;;6250731;22;20027;-65
2023/08/07 04:52:05;;;;;;;16.35;4.20;;;;;;;;;;6277310;22;20050;-65
2023/08/07 04:54:31;;;;;;;14.80;3.50;;;;;;;;;;6251219;22;20145;-65
2023/08/07 04:56:57;;;;;;;12.35;3.50;;;;;;;;;;6224783;22;20436;-66
2023/08/07 04:59:23;;;;;;;20.67;4.03;;;;;;;;;;6249592;22;20046;-65
2023/08/07 05:01:49;;;;;;;20.73;3.70;;;;;;;;;;6277632;22;20422;-66
2023/08/07 05:04:15;;;;;;;18.73;3.88;;;;;;;;;;6277661;22;20055;-65
2023/08/07 05:06:41;;;;;;;19.27;3.45;;;;;;;;;;6278068;22;20066;-65
2023/08/07 05:09:07;;;;;;;17.70;3.78;;;;;;;;;;6277390;22;20030;-65
2023/08/07 05:11:33;;;;;;;14.07;4.10;;;;;;;;;;6276907;22;20019;-65
2023/08/07 05:13:59;;;;;;;19.65;3.38;;;;;;;;;;6225384;22;20425;-65
2023/08/07 05:16:25;;;;;;;11.50;3.15;;;;;;;;;;6250023;22;20396;-64
2023/08/07 05:18:51;;;;;;;16.38;3.78;;;;;;;;;;6251209;22;20085;-64
2023/08/07 05:21:17;;;;;;;12.52;3.35;;;;;;;;;;6276856;22;20444;-64
2023/08/07 05:23:43;;;;;;;17.73;4.07;;;;;;;;;;6277366;22;20042;-64
2023/08/07 05:26:10;;;;;;;10.75;3.40;;;;;;;;;;6249702;22;20016;-64
2023/08/07 05:28:36;;;;;;;12.52;3.33;;;;;;;;;;6225294;22;20109;-64
2023/08/07 05:31:02;;;;;;;14.30;4.25;;;;;;;;;;6277014;22;20387;-64
2023/08/07 05:33:28;;;;;;;18.40;5.00;;;;;;;;;;6277868;22;20023;-64
2023/08/07 05:35:55;;;;;;;17.23;4.03;;;;;;;;;;6275814;22;20070;-64
2023/08/07 05:38:21;;;;;;;16.17;3.47;;;;;;;;;;6248471;22;20031;-64
2023/08/07 05:40:47;;;;;;;16.88;4.38;;;;;;;;;;6247969;22;20026;-64
2023/08/07 05:43:13;;;;;;;19.00;4.55;;;;;;;;;;6223618;22;20090;-64
2023/08/07 05:45:39;;;;;;;16.30;4.05;;;;;;;;;;6275349;22;20070;-64
2023/08/07 05:48:06;;;;;;;13.02;3.80;;;;;;;;;;6275363;22;20019;-64
2023/08/07 05:50:32;;;;;;;20.30;4.15;;;;;;;;;;6223874;22;20094;-64
2023/08/07 05:52:59;;;;;;;21.95;5.18;;;;;;;;;;6274693;22;20368;-65
2023/08/07 05:55:26;;;;;;;20.10;4.43;;;;;;;;;;6247660;22;20328;-64
2023/08/07 05:57:52;;;;;;;16.77;4.18;;;;;;;;;;6223881;22;20016;-64
2023/08/07 06:00:19;;;;;;;15.50;4.68;;;;;;;;;;6248103;22;20028;-64
2023/08/07 06:02:45;;;;;;;19.08;4.47;;;;;;;;;;6249112;22;20023;-64
2023/08/07 06:05:14;;;;;;;14.93;3.20;;;;;;;;;;6248989;22;20139;-64
2023/08/07 06:07:40;;;;;;;18.58;3.40;;;;;;;;;;6224030;22;20020;-64
2023/08/07 06:10:06;;;;;;;12.93;3.22;;;;;;;;;;6275383;22;20073;-66
2023/08/07 06:12:32;;;;;;;17.45;3.95;;;;;;;;;;6249330;22;20026;-63
2023/08/07 06:14:58;;;;;;;16.17;3.65;;;;;;;;;;6248559;22;20360;-64
2023/08/07 06:17:24;;;;;;;16.02;3.60;;;;;;;;;;6275422;22;20563;-63
2023/08/07 06:19:50;;;;;;;10.48;3.13;;;;;;;;;;6275663;22;20039;-64
2023/08/07 06:22:17;;;;;;;14.95;3.70;;;;;;;;;;6247786;22;20019;-63
2023/08/07 06:24:43;;;;;;;14.23;3.20;;;;;;;;;;6275341;22;20012;-64
2023/08/07 06:27:09;;;;;;;11.80;3.40;;;;;;;;;;6246942;22;20098;-64
2023/08/07 06:29:35;;;;;;;14.20;2.90;;;;;;;;;;6275375;22;20020;-63
2023/08/07 06:32:01;;;;;;;14.93;2.95;;;;;;;;;;6276256;22;20012;-64
2023/08/07 06:34:27;;;;;;;11.32;2.88;;;;;;;;;;6273684;22;20375;-64
2023/08/07 06:36:53;;;;;;;15.32;3.85;;;;;;;;;;6274329;22;20092;-64
2023/08/07 06:39:19;;;;;;;11.68;2.80;;;;;;;;;;6275112;22;20022;-64
2023/08/07 06:41:45;;;;;;;11.43;3.47;;;;;;;;;;6248829;22;20423;-64
2023/08/07 06:44:12;;;;;;;11.82;2.85;;;;;;;;;;6275041;22;20019;-64
2023/08/07 06:46:38;;;;;;;15.88;2.92;;;;;;;;;;6248836;22;20452;-65
2023/08/07 06:49:04;;;;;;;10.05;2.65;;;;;;;;;;6274595;22;20030;-65
2023/08/07 06:51:30;;;;;;;10.32;2.63;;;;;;;;;;6275810;22;20022;-64
2023/08/07 06:53:56;;;;;;;11.50;2.40;;;;;;;;;;6223035;22;20097;-64
2023/08/07 06:56:22;;;;;;;10.70;2.13;;;;;;;;;;6275167;22;20042;-64
2023/08/07 06:58:48;;;;;;;11.55;2.30;;;;;;;;;;6274642;22;20145;-64
2023/08/07 07:01:14;;;;;;;10.35;2.08;;;;;;;;;;6221865;22;20020;-65
2023/08/07 07:03:40;;;;;;;6.78;2.10;;;;;;;;;;6275811;22;20103;-65
2023/08/07 07:06:06;;;;;;;11.50;2.78;;;;;;;;;;6248337;22;20091;-65
2023/08/07 07:08:32;;;;;;;9.65;2.15;;;;;;;;;;6275179;22;20332;-65
2023/08/07 07:10:58;;;;;;;10.05;2.40;;;;;;;;;;6246628;22;20487;-65
2023/08/07 07:13:24;;;;;;;8.25;2.42;;;;;;;;;;6275106;22;20019;-65
2023/08/07 07:15:54;;;;;;;13.27;2.60;;;;;;;;;;6275635;22;20019;-65
2023/08/07 07:18:20;;;;;;;9.25;2.03;;;;;;;;;;6223090;22;20027;-65
2023/08/07 07:20:46;;;;;;;11.05;2.80;;;;;;;;;;6275353;22;20058;-65
2023/08/07 07:23:12;;;;;;;7.93;2.58;;;;;;;;;;6247771;22;20313;-65
2023/08/07 07:25:38;;;;;;;42.58;6.43;;;;;;;;;;6275353;22;20022;-64
2023/08/07 07:28:04;;;;;;;15.60;4.60;;;;;;;;;;6274710;22;20387;-63
2023/08/07 07:30:30;;;;;;;11.23;3.00;;;;;;;;;;6274644;22;20063;-64
2023/08/07 07:32:56;;;;;;;10.52;2.50;;;;;;;;;;6275587;22;20064;-64
2023/08/07 07:35:22;;;;;;;12.27;2.85;;;;;;;;;;6275103;22;20218;-64
2023/08/07 07:37:48;;;;;;;9.05;2.90;;;;;;;;;;6247725;22;20019;-63
2023/08/07 07:40:14;;;;;;;12.55;3.00;;;;;;;;;;6274373;22;20038;-64
2023/08/07 07:42:40;;;;;;;10.35;4.18;;;;;;;;;;6275181;22;20030;-63
2023/08/07 07:45:07;;;;;;;8.63;2.55;;;;;;;;;;6274919;22;20118;-64
2023/08/07 07:47:33;;;;;;;9.88;2.75;;;;;;;;;;6222769;22;20054;-64
2023/08/07 07:50:07;;;;;;;14.57;2.40;;;;;;;;;;6275178;22;20012;-64
2023/08/07 07:52:33;;;;;;;10.15;2.20;;;;;;;;;;6247531;22;20055;-64
2023/08/07 07:54:59;;;;;;;12.85;2.88;;;;;;;;;;6247832;22;20051;-64
2023/08/07 07:57:26;;;;;;;10.88;2.50;;;;;;;;;;6273794;22;20024;-64
2023/08/07 07:59:52;;;;;;;7.00;2.10;;;;;;;;;;6247619;22;20016;-64
2023/08/07 08:02:18;;;;;;;11.00;2.95;;;;;;;;;;6274914;22;20038;-65
2023/08/07 08:04:44;;;;;;;10.52;2.78;;;;;;;;;;6274442;22;20016;-65
2023/08/07 08:07:10;;;;;;;11.73;2.80;;;;;;;;;;6246274;22;20042;-65
2023/08/07 08:09:36;;;;;;;12.93;2.80;;;;;;;;;;6274693;22;20020;-65
2023/08/07 08:12:03;;;;;;;9.38;2.85;;;;;;;;;;6273289;22;20019;-64
2023/08/07 08:14:29;;;;;;;9.43;2.67;;;;;;;;;;6274969;22;20023;-64
2023/08/07 08:16:55;;;;;;;9.93;2.88;;;;;;;;;;6274117;22;20024;-64
2023/08/07 08:19:21;;;;;;;9.23;2.92;;;;;;;;;;6273290;22;20129;-64
2023/08/07 08:21:47;;;;;;;10.05;2.55;;;;;;;;;;6274722;22;20026;-64
2023/08/07 08:24:13;;;;;;;8.68;2.15;;;;;;;;;;6274338;22;20085;-64
2023/08/07 08:26:39;;;;;;;9.35;2.67;;;;;;;;;;6273762;22;20318;-64
2023/08/07 08:29:07;;;;;;;9.65;2.75;;;;;;;;;;6274456;22;20020;-65
2023/08/07 08:31:33;;;;;;;10.52;2.97;;;;;;;;;;6247564;22;20482;-64
2023/08/07 08:33:59;;;;;;;14.75;3.15;;;;;;;;;;6246731;22;20054;-64
2023/08/07 08:36:25;;;;;;;12.07;3.03;;;;;;;;;;6273072;22;20019;-64
2023/08/07 08:38:52;;;;;;;11.43;2.92;;;;;;;;;;6273326;22;20031;-64
2023/08/07 08:41:19;;;;;;;16.67;3.08;;;;;;;;;;6273197;22;20098;-65
2023/08/07 08:43:49;;;;;;;13.30;3.50;;;;;;;;;;6274805;22;20361;-64
2023/08/07 08:46:18;;;;;;;;;;;;;;;;;;6247903;22;20027;-65
2023/08/07 08:48:47;;;;;;;11.50;3.10;;;;;;;;;;6274267;22;19919;-65
2023/08/07 08:51:13;;;;;;;13.77;2.45;;;;;;;;;;6274269;22;20468;-65
2023/08/07 08:53:40;;;;;;;8.25;2.95;;;;;;;;;;6274597;22;20024;-65
2023/08/07 08:56:07;;;;;;;5.93;1.88;;;;;;;;;;6247279;22;20024;-64
2023/08/07 08:58:34;;;;;;;8.15;2.85;;;;;;;;;;6247806;22;20026;-65
2023/08/07 09:01:00;;;;;;;9.50;2.38;;;;;;;;;;6274798;22;20019;-64
2023/08/07 09:03:26;;;;;;;8.90;2.53;;;;;;;;;;6273865;22;20016;-64
2023/08/07 09:05:59;;;;;;;9.95;2.47;;;;;;;;;;6275020;22;20324;-66
2023/08/07 09:08:29;;;;;;;8.52;2.63;;;;;;;;;;6273087;22;20055;-60
2023/08/07 09:10:55;;;;;;;12.40;2.08;;;;;;;;;;6248735;22;20020;-60
2023/08/07 09:13:24;;;;;;;12.10;1.83;;;;;;;;;;6276027;22;20020;-59
2023/08/07 09:15:51;;;;;;;6.68;2.00;;;;;;;;;;6276456;22;20012;-58
2023/08/07 09:18:17;;;;;;;5.85;1.75;;;;;;;;;;6223093;22;20058;-58
2023/08/07 09:20:44;;;;;;;9.25;2.17;;;;;;;;;;6247970;22;20016;-59
2023/08/07 09:23:10;;;;;;;6.60;1.90;;;;;;;;;;6248546;22;20015;-58
2023/08/07 09:25:36;;;;;;;12.32;1.88;;;;;;;;;;6275725;22;20051;-60
2023/08/07 09:28:05;;;;;;;11.70;2.58;;;;;;;;;;6248865;22;20050;-62
2023/08/07 09:30:32;;;;;;;10.18;2.10;;;;;;;;;;6249202;22;20194;-61
2023/08/07 09:32:59;;;;;;;7.80;1.88;;;;;;;;;;6275731;22;20028;-61
2023/08/07 09:35:25;;;;;;;8.77;2.17;;;;;;;;;;6222404;22;20065;-58
2023/08/07 09:37:51;;;;;;;10.00;2.20;;;;;;;;;;6274974;22;20031;-59
2023/08/07 09:40:18;;;;;;;12.25;2.40;;;;;;;;;;6223061;22;20387;-58
2023/08/07 09:42:44;;;;;;;6.88;1.90;;;;;;;;;;6223495;22;20336;-58
2023/08/07 09:45:24;;;;;;;8.80;2.00;;;;;;;;;;6276019;22;20345;-60
2023/08/07 09:48:03;;;;;;;10.27;2.63;;;;;;;;;;6248057;22;20071;-58
2023/08/07 09:50:29;;;;;;;9.68;2.15;;;;;;;;;;6275503;22;20020;-58
2023/08/07 09:52:57;;;;;;;10.40;2.28;;;;;;;;;;6247868;22;20349;-59
2023/08/07 09:55:23;;;;;;;7.60;2.22;;;;;;;;;;6247690;22;20098;-60
2023/08/07 09:57:50;;;;;;;9.95;2.38;;;;;;;;;;6275693;22;20027;-59
2023/08/07 10:00:16;;;;;;;6.75;2.03;;;;;;;;;;6275596;22;20019;-60
2023/08/07 10:02:45;;;;;;;8.02;1.85;;;;;;;;;;6275588;22;20099;-60
2023/08/07 10:05:15;;;;;;;9.27;2.35;;;;;;;;;;6223452;22;20027;-59
2023/08/07 10:07:41;;;;;;;7.72;1.92;;;;;;;;;;6249172;22;20046;-60
2023/08/07 10:10:09;;;;;;;5.13;1.80;;;;;;;;;;6247205;22;20345;-60
2023/08/07 10:12:35;;;;;;;7.78;2.00;;;;;;;;;;6221916;22;20105;-60
2023/08/07 10:15:02;;;;;;;9.77;1.75;;;;;;;;;;6247752;22;20063;-60
2023/08/07 10:17:28;;;;;;;8.52;1.80;;;;;;;;;;6222665;22;20142;-59
2023/08/07 10:19:54;;;;;;;8.02;1.92;;;;;;;;;;6223295;22;20023;-59
2023/08/07 10:22:20;;;;;;;11.38;2.47;;;;;;;;;;6274408;22;20066;-59
2023/08/07 10:24:50;;;;;;;11.73;2.30;;;;;;;;;;6247853;22;20016;-60
2023/08/07 10:27:18;;;;;;;5.82;2.03;;;;;;;;;;6223042;22;20018;-60
2023/08/07 10:29:46;;;;;;;7.78;2.28;;;;;;;;;;6223006;22;20020;-59
2023/08/07 10:32:14;;;;;;;9.48;2.03;;;;;;;;;;6246700;22;20026;-60
2023/08/07 10:34:40;;;;;;;4.13;1.67;;;;;;;;;;6223005;22;20023;-59
2023/08/07 10:37:07;;;;;;;7.93;1.80;;;;;;;;;;6248003;22;20022;-60
2023/08/07 10:39:35;;;;;;;8.00;2.33;;;;;;;;;;6248666;22;20020;-60
2023/08/07 10:42:04;;;;;;;11.18;1.98;;;;;;;;;;6248274;22;20047;-60
2023/08/07 10:44:33;;;;;;;11.70;2.10;;;;;;;;;;6248197;22;20318;-60
2023/08/07 10:47:01;;;;;;;9.50;1.80;;;;;;;;;;6248458;22;20026;-60
2023/08/07 10:49:32;;;;;;;7.57;1.90;;;;;;;;;;6223411;22;20035;-60
2023/08/07 10:51:58;;;;;;;8.27;1.75;;;;;;;;;;6222929;22;20019;-59
2023/08/07 10:54:24;;;;;;;6.40;1.85;;;;;;;;;;6248392;22;20011;-60
2023/08/07 10:56:54;;;;;;;6.75;1.98;;;;;;;;;;6248666;22;20023;-59
2023/08/07 10:59:21;;;;;;;12.73;2.13;;;;;;;;;;6247364;22;20024;-60
2023/08/07 11:01:52;;;;;;;6.70;1.67;;;;;;;;;;6248674;22;20051;-60
2023/08/07 11:04:18;;;;;;;7.40;1.55;;;;;;;;;;6222381;22;20027;-60
2023/08/07 11:06:47;;;;;;;10.35;2.03;;;;;;;;;;6275422;22;20016;-59
2023/08/07 11:09:13;;;;;;;9.80;2.75;;;;;;;;;;6247769;22;20034;-60
2023/08/07 11:11:40;;;;;;;6.78;1.63;;;;;;;;;;6275820;22;20020;-60
2023/08/07 11:14:10;;;;;;;8.38;1.90;;;;;;;;;;6247349;22;20016;-60
2023/08/07 11:16:36;;;;;;;10.13;1.88;;;;;;;;;;6248515;22;20015;-60
2023/08/07 11:19:02;;;;;;;6.75;1.80;;;;;;;;;;6222504;22;20070;-62
2023/08/07 11:21:29;;;;;;;3.78;1.45;;;;;;;;;;6248323;22;20031;-60
2023/08/07 11:23:55;;;;;;;6.63;2.20;;;;;;;;;;6248258;22;20024;-60
2023/08/07 11:26:21;;;;;;;8.73;2.10;;;;;;;;;;6275312;22;20016;-60
2023/08/07 11:28:48;;;;;;;4.60;1.50;;;;;;;;;;6247354;22;20020;-60
2023/08/07 11:31:14;;;;;;;6.25;1.60;;;;;;;;;;6246917;22;20015;-60
2023/08/07 11:33:41;;;;;;;4.15;1.40;;;;;;;;;;6221532;22;20027;-61
2023/08/07 11:36:11;;;;;;;5.05;1.67;;;;;;;;;;6247062;22;20090;-61
2023/08/07 11:38:38;;;;;;;4.50;1.38;;;;;;;;;;6275160;22;20027;-61
2023/08/07 11:41:05;;;;;;;5.32;1.95;;;;;;;;;;6274898;22;20019;-61
2023/08/07 11:43:32;;;;;;;6.80;1.60;;;;;;;;;;6221918;22;20463;-61
2023/08/07 11:45:59;;;;;;;5.28;1.25;;;;;;;;;;6222620;22;20019;-61
2023/08/07 11:48:26;;;;;;;8.90;1.75;;;;;;;;;;6247368;22;20027;-61
2023/08/07 11:50:53;;;;;;;6.13;1.58;;;;;;;;;;6274930;22;20020;-61
2023/08/07 11:53:22;;;;;;;5.32;1.38;;;;;;;;;;6273300;22;20023;-61
2023/08/07 11:55:53;;;;;;;5.70;1.27;;;;;;;;;;6273988;22;20019;-60
2023/08/07 11:58:19;;;;;;;4.72;2.08;;;;;;;;;;6246539;22;20368;-60
2023/08/07 12:00:45;;;;;;;5.50;1.70;;;;;;;;;;6274806;22;20092;-58
2023/08/07 12:03:31;;;;;;;7.03;1.70;;;;;;;;;;6246146;22;20080;-59
2023/08/07 12:05:57;;;;;;;6.38;1.67;;;;;;;;;;6246748;22;20022;-58
2023/08/07 12:08:24;;;;;;;5.20;1.58;;;;;;;;;;6221739;22;20027;-60
2023/08/07 12:10:54;;;;;;;5.72;2.35;;;;;;;;;;6247879;22;20055;-59
2023/08/07 12:13:21;;;;;;;10.10;2.08;;;;;;;;;;6273888;22;20051;-61
2023/08/07 12:15:50;;;;;;;6.85;1.80;;;;;;;;;;6222362;22;20043;-62
2023/08/07 12:18:18;;;;;;;7.65;3.13;;;;;;;;;;6247399;22;20089;-61
2023/08/07 12:20:44;;;;;;;7.68;1.70;;;;;;;;;;6222036;22;20027;-61
2023/08/07 12:23:17;;;;;;;7.95;2.83;;;;;;;;;;6274483;22;20107;-61
2023/08/07 12:25:43;;;;;;;5.75;1.83;;;;;;;;;;6246130;22;20094;-61
2023/08/07 12:28:09;;;;;;;10.88;2.15;;;;;;;;;;6244998;22;20020;-61
2023/08/07 12:30:35;;;;;;;10.02;2.40;;;;;;;;;;6219972;22;20028;-60
2023/08/07 12:33:04;;;;;;;8.25;2.08;;;;;;;;;;6243364;22;20099;-61
2023/08/07 12:35:30;;;;;;;5.97;1.60;;;;;;;;;;6271777;22;20018;-61
2023/08/07 12:37:56;;;;;;;4.63;2.38;;;;;;;;;;6244572;22;20070;-61
2023/08/07 12:40:23;;;;;;;4.13;1.50;;;;;;;;;;6271251;22;20027;-61
2023/08/07 12:42:49;;;;;;;7.22;2.55;;;;;;;;;;6271594;22;20388;-61
2023/08/07 12:45:19;;;;;;;6.32;2.03;;;;;;;;;;6244724;22;20696;-58
2023/08/07 12:47:45;;;;;;;4.15;1.90;;;;;;;;;;6276652;22;20023;-63
2023/08/07 12:50:11;;;;;;;9.10;1.92;;;;;;;;;;6248535;22;20019;-64
2023/08/07 12:52:37;;;;;;;6.40;2.35;;;;;;;;;;6248723;22;20325;-63
2023/08/07 12:55:04;;;;;;;7.95;2.35;;;;;;;;;;6223374;22;20023;-64
2023/08/07 12:57:30;;;;;;;9.57;2.42;;;;;;;;;;6276422;22;20065;-63
2023/08/07 12:59:56;;;;;;;6.65;2.30;;;;;;;;;;6249294;22;20095;-63
2023/08/07 13:02:22;;;;;;;10.15;3.00;;;;;;;;;;6248753;22;20015;-63
2023/08/07 13:04:48;;;;;;;10.15;2.85;;;;;;;;;;6276106;22;20035;-62
2023/08/07 13:07:14;;;;;;;9.07;3.05;;;;;;;;;;6275042;22;20045;-63
2023/08/07 13:09:40;;;;;;;8.15;2.72;;;;;;;;;;6273505;22;20098;-62
2023/08/07 13:12:06;;;;;;;8.98;2.63;;;;;;;;;;6273313;22;20034;-62
2023/08/07 13:14:32;;;;;;;11.48;2.70;;;;;;;;;;6246878;22;20125;-61
2023/08/07 13:16:58;;;;;;;9.05;2.50;;;;;;;;;;6275900;22;20055;-61
2023/08/07 13:19:24;;;;;;;8.98;3.30;;;;;;;;;;6275969;22;20411;-62
2023/08/07 13:21:50;;;;;;;7.30;2.58;;;;;;;;;;6276179;22;20530;-62
2023/08/07 13:24:16;;;;;;;9.80;2.40;;;;;;;;;;6248467;22;20336;-61
2023/08/07 13:26:45;;;;;;;10.68;2.97;;;;;;;;;;6274122;22;20098;-62
2023/08/07 13:29:12;;;;;;;9.23;2.83;;;;;;;;;;6273797;22;20012;-61
2023/08/07 13:31:38;;;;;;;9.15;2.80;;;;;;;;;;6221913;22;20024;-61
2023/08/07 13:34:08;;;;;;;9.00;2.65;;;;;;;;;;6275471;22;20425;-62
2023/08/07 13:36:34;;;;;;;7.68;2.05;;;;;;;;;;6248488;22;20055;-61
2023/08/07 13:39:00;;;;;;;10.20;2.40;;;;;;;;;;6275806;22;20122;-61
2023/08/07 13:41:27;;;;;;;7.18;2.28;;;;;;;;;;6249048;22;20049;-62
2023/08/07 13:43:53;;;;;;;8.80;3.58;;;;;;;;;;6276002;22;20026;-61
2023/08/07 13:46:24;;;;;;;9.23;2.45;;;;;;;;;;6248680;22;20023;-62
2023/08/07 13:48:50;;;;;;;8.30;4.25;;;;;;;;;;6249244;22;20102;-63
2023/08/07 13:51:17;;;;;;;6.50;2.05;;;;;;;;;;6275946;22;20020;-62
2023/08/07 13:53:43;;;;;;;8.23;2.60;;;;;;;;;;6276060;22;20024;-62
2023/08/07 13:56:12;;;;;;;11.73;2.65;;;;;;;;;;6274908;22;20439;-62
2023/08/07 13:58:38;;;;;;;10.88;2.40;;;;;;;;;;6222966;22;20073;-61
2023/08/07 14:01:04;;;;;;;6.07;1.75;;;;;;;;;;6248753;22;20020;-62
2023/08/07 14:03:30;;;;;;;8.25;2.58;;;;;;;;;;6276424;22;20058;-62
2023/08/07 14:05:56;;;;;;;6.55;1.75;;;;;;;;;;6276150;22;20015;-62
2023/08/07 14:08:22;;;;;;;8.50;2.10;;;;;;;;;;6275440;22;20393;-61
2023/08/07 14:10:48;;;;;;;6.40;2.15;;;;;;;;;;6276362;22;20023;-62
2023/08/07 14:13:15;;;;;;;7.47;2.30;;;;;;;;;;6275980;22;20012;-62
2023/08/07 14:15:41;;;;;;;10.55;2.30;;;;;;;;;;6275651;22;20101;-62
2023/08/07 14:18:07;;;;;;;6.60;2.17;;;;;;;;;;6275888;22;20329;-62
2023/08/07 14:20:33;;;;;;;4.38;1.85;;;;;;;;;;6276144;22;20016;-62
2023/08/07 14:22:59;;;;;;;9.43;2.78;;;;;;;;;;6248720;22;20384;-62
2023/08/07 14:25:25;;;;;;;10.13;2.50;;;;;;;;;;6276085;22;20019;-62
2023/08/07 14:27:51;;;;;;;11.48;2.28;;;;;;;;;;6248459;22;20020;-62
2023/08/07 14:30:17;;;;;;;8.20;2.60;;;;;;;;;;6275461;22;20051;-62
2023/08/07 14:32:43;;;;;;;6.72;1.67;;;;;;;;;;6222992;22;20102;-63